Time;durP1;ratioP1;P1;durP2;ratioP2;P2;SDS_P1;SDS_P2;PMS_P1;PMS_P2;Temp;Humidity;BMP_temperature;BMP_pressure;BME280_temperature;BME280_humidity;BME280_pressure;Samples;Min_cycle;Max_cycle;Signal;HPM_P1;HPM_P2
2021/09/15 00:01:59;;;;;;;75.80;11.93;;;;;;;;;;4975154;28;20046;-79
2021/09/15 00:04:25;;;;;;;72.32;11.43;;;;;;;;;;4959982;28;20045;-78
2021/09/15 00:06:51;;;;;;;52.75;10.13;;;;;;;;;;4963957;28;20048;-79
2021/09/15 00:09:18;;;;;;;46.50;9.32;;;;;;;;;;4974729;28;20415;-79
2021/09/15 00:11:44;;;;;;;48.85;10.48;;;;;;;;;;4975125;28;20126;-79
2021/09/15 00:14:10;;;;;;;57.75;9.13;;;;;;;;;;4959056;28;20031;-79
2021/09/15 00:16:38;;;;;;;44.95;9.27;;;;;;;;;;4955968;28;20046;-78
2021/09/15 00:19:06;;;;;;;43.67;8.88;;;;;;;;;;4961625;28;20034;-79
2021/09/15 00:21:35;;;;;;;39.67;8.38;;;;;;;;;;4954553;28;20121;-80
2021/09/15 00:24:04;;;;;;;41.83;8.18;;;;;;;;;;4959774;28;20113;-79
2021/09/15 00:26:30;;;;;;;49.97;8.55;;;;;;;;;;4959025;28;20062;-79
2021/09/15 00:28:57;;;;;;;45.00;8.55;;;;;;;;;;4960287;28;20037;-80
2021/09/15 00:31:23;;;;;;;46.45;9.88;;;;;;;;;;4952524;28;20042;-81
2021/09/15 00:33:49;;;;;;;47.22;8.27;;;;;;;;;;4962510;28;20034;-80
2021/09/15 00:36:15;;;;;;;48.00;9.10;;;;;;;;;;4972369;28;20081;-81
2021/09/15 00:38:41;;;;;;;62.10;10.75;;;;;;;;;;4958550;28;20035;-81
2021/09/15 00:41:11;;;;;;;60.58;9.75;;;;;;;;;;4964968;28;20771;-80
2021/09/15 00:43:57;;;;;;;60.05;9.82;;;;;;;;;;4954861;28;21634;-80
2021/09/15 00:46:24;;;;;;;51.28;8.35;;;;;;;;;;4960055;28;20088;-81
2021/09/15 00:48:53;;;;;;;45.88;9.13;;;;;;;;;;4987305;28;20043;-80
2021/09/15 00:51:21;;;;;;;63.08;10.07;;;;;;;;;;4971317;28;21452;-79
2021/09/15 00:53:47;;;;;;;57.88;9.45;;;;;;;;;;4966146;28;20137;-79
2021/09/15 00:56:16;;;;;;;63.28;9.77;;;;;;;;;;4964862;28;20061;-79
2021/09/15 00:58:42;;;;;;;48.28;8.98;;;;;;;;;;4977309;28;20041;-79
2021/09/15 01:01:08;;;;;;;74.28;11.02;;;;;;;;;;4962122;28;20041;-79
2021/09/15 01:03:34;;;;;;;77.53;10.98;;;;;;;;;;4953782;28;20066;-80
2021/09/15 01:06:01;;;;;;;83.20;11.73;;;;;;;;;;4963999;28;20022;-80
2021/09/15 01:08:31;;;;;;;66.43;11.15;;;;;;;;;;4956560;28;20031;-80
2021/09/15 01:11:00;;;;;;;68.95;11.45;;;;;;;;;;4958107;28;20034;-81
2021/09/15 01:13:28;;;;;;;65.68;12.00;;;;;;;;;;4957127;28;20041;-81
2021/09/15 01:15:58;;;;;;;62.92;10.65;;;;;;;;;;4959314;28;20563;-81
2021/09/15 01:18:25;;;;;;;54.13;9.50;;;;;;;;;;4952650;28;20039;-79
2021/09/15 01:20:53;;;;;;;68.43;11.07;;;;;;;;;;4941555;28;20535;-79
2021/09/15 01:23:22;;;;;;;53.42;9.35;;;;;;;;;;4969860;28;20034;-79
2021/09/15 01:25:49;;;;;;;64.55;10.35;;;;;;;;;;4974073;28;20558;-79
2021/09/15 01:28:17;;;;;;;67.72;10.70;;;;;;;;;;4958783;28;20081;-79
2021/09/15 01:30:46;;;;;;;73.18;11.93;;;;;;;;;;4949190;28;20756;-78
2021/09/15 01:33:16;;;;;;;89.93;12.10;;;;;;;;;;4944208;28;20141;-79
2021/09/15 01:35:43;;;;;;;70.32;11.15;;;;;;;;;;4954567;28;20057;-79
2021/09/15 01:38:11;;;;;;;66.90;10.98;;;;;;;;;;4955298;28;20080;-79
2021/09/15 01:40:38;;;;;;;73.97;11.57;;;;;;;;;;4940794;28;20038;-79
2021/09/15 01:43:06;;;;;;;81.20;11.55;;;;;;;;;;4954459;28;20100;-79
2021/09/15 01:45:33;;;;;;;81.07;11.75;;;;;;;;;;4966896;28;20043;-78
2021/09/15 01:47:59;;;;;;;75.05;11.40;;;;;;;;;;4960059;28;20057;-79
2021/09/15 01:50:25;;;;;;;65.60;10.98;;;;;;;;;;4969769;28;20377;-79
2021/09/15 01:52:52;;;;;;;85.72;16.92;;;;;;;;;;4959728;28;20030;-79
2021/09/15 01:55:25;;;;;;;99.90;26.73;;;;;;;;;;4954179;28;20035;-78
2021/09/15 01:57:52;;;;;;;98.45;29.75;;;;;;;;;;4956956;28;20030;-79
2021/09/15 02:00:20;;;;;;;89.60;25.88;;;;;;;;;;4956552;28;20030;-78
2021/09/15 02:02:51;;;;;;;65.32;15.60;;;;;;;;;;4962903;28;20051;-78
2021/09/15 02:05:22;;;;;;;73.53;13.43;;;;;;;;;;4958429;28;20038;-78
2021/09/15 02:07:50;;;;;;;78.13;12.93;;;;;;;;;;4965333;28;20189;-79
2021/09/15 02:10:18;;;;;;;66.25;12.02;;;;;;;;;;4965866;28;20298;-79
2021/09/15 02:12:45;;;;;;;65.70;11.00;;;;;;;;;;4960108;28;20041;-79
2021/09/15 02:15:16;;;;;;;75.80;12.30;;;;;;;;;;4967508;28;20101;-79
2021/09/15 02:17:42;;;;;;;77.22;12.30;;;;;;;;;;4975206;28;20034;-79
2021/09/15 02:20:13;;;;;;;79.82;12.20;;;;;;;;;;4958938;28;20077;-79
2021/09/15 02:22:41;;;;;;;85.20;12.13;;;;;;;;;;4959266;28;20049;-79
2021/09/15 02:25:09;;;;;;;75.22;11.50;;;;;;;;;;4966416;28;20118;-79
2021/09/15 02:27:37;;;;;;;67.53;11.73;;;;;;;;;;4958531;28;20026;-79
2021/09/15 02:30:07;;;;;;;63.15;10.35;;;;;;;;;;4956295;28;20045;-79
2021/09/15 02:32:35;;;;;;;66.50;12.07;;;;;;;;;;4959939;28;20031;-79
2021/09/15 02:35:01;;;;;;;81.85;11.98;;;;;;;;;;4963166;28;20050;-79
2021/09/15 02:37:29;;;;;;;81.03;11.65;;;;;;;;;;4961155;28;20046;-79
2021/09/15 02:39:55;;;;;;;77.20;12.27;;;;;;;;;;4966674;28;20136;-79
2021/09/15 02:42:25;;;;;;;68.35;11.77;;;;;;;;;;4961756;28;20700;-79
2021/09/15 02:44:52;;;;;;;70.95;12.45;;;;;;;;;;4957344;28;20081;-79
2021/09/15 02:47:21;;;;;;;79.68;12.38;;;;;;;;;;4971940;28;20097;-79
2021/09/15 02:49:47;;;;;;;80.45;11.48;;;;;;;;;;4972100;28;20030;-79
2021/09/15 02:52:19;;;;;;;71.93;11.43;;;;;;;;;;4960163;28;20077;-79
2021/09/15 02:54:46;;;;;;;62.80;11.20;;;;;;;;;;4956229;28;20029;-79
2021/09/15 02:57:13;;;;;;;71.15;11.57;;;;;;;;;;4961390;28;20030;-79
2021/09/15 02:59:40;;;;;;;75.15;11.68;;;;;;;;;;4970720;28;20910;-78
2021/09/15 03:02:10;;;;;;;72.00;11.70;;;;;;;;;;4958608;28;20057;-79
2021/09/15 03:04:36;;;;;;;67.75;10.82;;;;;;;;;;4969666;28;20073;-79
2021/09/15 03:07:05;;;;;;;75.25;11.45;;;;;;;;;;4961796;28;20531;-80
2021/09/15 03:09:33;;;;;;;75.10;11.50;;;;;;;;;;4950865;28;20042;-80
2021/09/15 03:12:00;;;;;;;70.82;11.85;;;;;;;;;;4973526;28;20034;-80
2021/09/15 03:14:28;;;;;;;78.65;12.10;;;;;;;;;;4959650;28;20043;-79
2021/09/15 03:16:56;;;;;;;66.35;11.45;;;;;;;;;;4974124;28;20430;-79
2021/09/15 03:19:24;;;;;;;65.50;10.65;;;;;;;;;;4957574;28;20043;-80
2021/09/15 03:21:50;;;;;;;65.97;10.38;;;;;;;;;;4959845;28;20057;-79
2021/09/15 03:24:17;;;;;;;65.63;10.93;;;;;;;;;;4963236;28;20019;-79
2021/09/15 03:26:43;;;;;;;63.45;11.38;;;;;;;;;;4962253;28;20035;-80
2021/09/15 03:29:11;;;;;;;70.97;11.05;;;;;;;;;;4978601;28;20042;-79
2021/09/15 03:31:37;;;;;;;65.28;10.75;;;;;;;;;;4958729;28;21786;-79
2021/09/15 03:34:03;;;;;;;71.28;11.18;;;;;;;;;;4964758;28;20050;-79
2021/09/15 03:36:29;;;;;;;75.85;11.40;;;;;;;;;;4972017;28;20038;-80
2021/09/15 03:38:56;;;;;;;59.92;11.20;;;;;;;;;;4968137;28;20709;-80
2021/09/15 03:41:22;;;;;;;65.63;11.20;;;;;;;;;;4966354;28;20037;-80
2021/09/15 03:43:48;;;;;;;67.43;12.02;;;;;;;;;;4965614;28;20142;-80
2021/09/15 03:46:17;;;;;;;72.00;11.30;;;;;;;;;;4963813;28;20110;-79
2021/09/15 03:48:43;;;;;;;62.28;11.52;;;;;;;;;;4965032;28;20057;-79
2021/09/15 03:51:11;;;;;;;56.72;10.55;;;;;;;;;;4965702;28;20046;-80
2021/09/15 03:53:37;;;;;;;64.00;11.07;;;;;;;;;;4959209;28;22048;-80
2021/09/15 03:56:04;;;;;;;61.33;10.43;;;;;;;;;;4963574;28;20049;-80
2021/09/15 03:58:32;;;;;;;60.92;11.95;;;;;;;;;;4960826;28;20048;-79
2021/09/15 04:00:58;;;;;;;63.40;11.27;;;;;;;;;;4959902;28;20057;-79
2021/09/15 04:03:25;;;;;;;71.43;10.65;;;;;;;;;;4957872;28;20042;-79
2021/09/15 04:05:51;;;;;;;67.45;11.75;;;;;;;;;;4959332;28;20148;-79
2021/09/15 04:08:18;;;;;;;61.60;11.05;;;;;;;;;;4961095;28;20034;-78
2021/09/15 04:10:46;;;;;;;58.80;10.65;;;;;;;;;;4960813;28;20034;-77
2021/09/15 04:13:12;;;;;;;59.45;9.60;;;;;;;;;;4956233;28;20039;-81
2021/09/15 04:15:38;;;;;;;49.65;10.07;;;;;;;;;;4958861;28;20026;-80
2021/09/15 04:18:04;;;;;;;53.03;9.02;;;;;;;;;;4979301;28;20694;-80
2021/09/15 04:20:31;;;;;;;57.60;10.07;;;;;;;;;;4958262;28;20058;-80
2021/09/15 04:22:57;;;;;;;47.95;9.82;;;;;;;;;;4961805;28;20145;-79
2021/09/15 04:33:38;;;;;;;38.65;8.32;;;;;;;;;;4962237;28;20069;-80
2021/09/15 04:36:06;;;;;;;37.15;7.80;;;;;;;;;;4963599;28;20054;-80
2021/09/15 04:38:32;;;;;;;33.10;7.47;;;;;;;;;;4970588;28;20037;-80
2021/09/15 04:40:58;;;;;;;31.65;7.85;;;;;;;;;;4960334;28;20023;-80
2021/09/15 04:43:24;;;;;;;40.30;9.07;;;;;;;;;;4957149;28;20377;-79
2021/09/15 04:45:51;;;;;;;36.72;7.93;;;;;;;;;;4959226;28;20085;-79
2021/09/15 04:48:19;;;;;;;35.70;8.40;;;;;;;;;;4977469;28;20818;-79
2021/09/15 04:50:45;;;;;;;38.95;7.88;;;;;;;;;;4965498;28;20043;-79
2021/09/15 04:53:15;;;;;;;36.47;8.13;;;;;;;;;;4967927;28;20046;-80
2021/09/15 04:55:42;;;;;;;39.65;8.25;;;;;;;;;;4954399;28;20396;-80
2021/09/15 04:58:09;;;;;;;42.10;8.25;;;;;;;;;;4965655;28;20114;-80
2021/09/15 05:00:37;;;;;;;34.75;7.18;;;;;;;;;;4971844;28;20038;-79
2021/09/15 05:03:03;;;;;;;30.75;7.72;;;;;;;;;;4977630;28;20735;-80
2021/09/15 05:05:29;;;;;;;34.30;7.13;;;;;;;;;;4952702;28;20033;-80
2021/09/15 05:07:55;;;;;;;37.72;7.65;;;;;;;;;;4966110;28;20038;-80
2021/09/15 05:10:25;;;;;;;34.88;7.55;;;;;;;;;;4958683;28;20038;-80
2021/09/15 05:12:57;;;;;;;29.00;7.30;;;;;;;;;;4977811;28;20106;-81
2021/09/15 05:15:24;;;;;;;31.23;7.25;;;;;;;;;;4975225;28;20564;-80
2021/09/15 05:17:51;;;;;;;32.42;7.60;;;;;;;;;;4963820;28;20054;-80
2021/09/15 05:20:18;;;;;;;29.45;6.72;;;;;;;;;;4958858;28;20031;-79
2021/09/15 05:22:45;;;;;;;29.95;6.70;;;;;;;;;;4949797;28;20043;-80
2021/09/15 05:25:12;;;;;;;31.88;7.13;;;;;;;;;;4960301;28;20062;-79
2021/09/15 05:27:38;;;;;;;30.00;6.82;;;;;;;;;;4955679;28;20637;-79
2021/09/15 05:30:04;;;;;;;34.33;7.40;;;;;;;;;;4957004;28;20030;-79
2021/09/15 05:32:30;;;;;;;30.88;6.82;;;;;;;;;;4959976;28;20030;-80
2021/09/15 05:34:56;;;;;;;29.80;6.55;;;;;;;;;;4965587;28;20031;-80
2021/09/15 05:37:23;;;;;;;31.33;6.80;;;;;;;;;;4969779;28;20034;-80
2021/09/15 05:39:49;;;;;;;31.25;6.53;;;;;;;;;;4973097;28;20077;-80
2021/09/15 05:42:15;;;;;;;34.42;7.05;;;;;;;;;;4978871;28;20110;-80
2021/09/15 05:44:44;;;;;;;25.05;6.10;;;;;;;;;;4958993;28;20067;-80
2021/09/15 05:47:11;;;;;;;29.83;6.60;;;;;;;;;;4971076;28;20044;-81
2021/09/15 05:49:37;;;;;;;25.20;6.38;;;;;;;;;;4994432;28;20031;-79
2021/09/15 05:52:04;;;;;;;29.30;6.68;;;;;;;;;;4987756;28;20064;-80
2021/09/15 05:54:30;;;;;;;31.33;6.50;;;;;;;;;;4964428;28;20196;-79
2021/09/15 05:56:56;;;;;;;29.60;5.95;;;;;;;;;;4962533;28;20084;-80
2021/09/15 05:59:23;;;;;;;30.85;6.55;;;;;;;;;;4974339;28;20399;-80
2021/09/15 06:01:51;;;;;;;30.35;6.88;;;;;;;;;;4960265;28;20184;-79
2021/09/15 06:04:17;;;;;;;31.38;7.10;;;;;;;;;;4959914;28;20056;-79
2021/09/15 06:06:46;;;;;;;27.25;7.10;;;;;;;;;;4962349;28;20030;-79
2021/09/15 06:09:12;;;;;;;27.58;6.25;;;;;;;;;;4963285;28;20746;-80
2021/09/15 06:11:38;;;;;;;32.45;6.53;;;;;;;;;;4960192;28;20038;-79
2021/09/15 06:14:04;;;;;;;27.40;6.15;;;;;;;;;;4961766;28;20042;-80
2021/09/15 06:16:30;;;;;;;25.52;6.72;;;;;;;;;;4958816;28;20046;-80
2021/09/15 06:18:56;;;;;;;36.40;7.25;;;;;;;;;;4956924;28;20113;-80
2021/09/15 06:21:27;;;;;;;33.35;7.30;;;;;;;;;;4961231;28;20038;-80
2021/09/15 06:23:54;;;;;;;28.83;6.68;;;;;;;;;;4958685;28;20134;-80
2021/09/15 06:26:25;;;;;;;34.90;7.28;;;;;;;;;;4953786;28;20034;-79
2021/09/15 06:28:54;;;;;;;40.45;7.68;;;;;;;;;;4961944;28;20057;-81
2021/09/15 06:31:20;;;;;;;42.97;7.57;;;;;;;;;;4959816;28;20121;-80
2021/09/15 06:33:47;;;;;;;35.13;7.28;;;;;;;;;;4958676;28;20038;-81
2021/09/15 06:36:14;;;;;;;35.25;7.65;;;;;;;;;;4958846;28;20443;-79
2021/09/15 06:38:42;;;;;;;35.55;7.57;;;;;;;;;;4950046;28;20046;-79
2021/09/15 06:41:09;;;;;;;37.47;7.15;;;;;;;;;;4959692;28;20113;-78
2021/09/15 06:43:35;;;;;;;37.38;7.97;;;;;;;;;;4953300;28;20066;-78
2021/09/15 06:46:01;;;;;;;31.67;7.63;;;;;;;;;;4952844;28;20043;-81
2021/09/15 06:48:27;;;;;;;28.25;6.85;;;;;;;;;;4939212;28;20023;-81
2021/09/15 06:50:53;;;;;;;36.75;7.93;;;;;;;;;;4960253;28;20507;-79
2021/09/15 06:53:19;;;;;;;31.88;6.80;;;;;;;;;;4953331;28;20457;-79
2021/09/15 06:55:46;;;;;;;35.90;7.43;;;;;;;;;;4957193;28;20048;-79
2021/09/15 06:58:12;;;;;;;30.90;6.72;;;;;;;;;;4972276;28;20042;-78
2021/09/15 07:00:39;;;;;;;35.45;7.53;;;;;;;;;;4953079;28;20030;-79
2021/09/15 07:03:05;;;;;;;32.60;7.50;;;;;;;;;;4959875;28;20026;-79
2021/09/15 07:05:32;;;;;;;36.08;6.65;;;;;;;;;;4953201;28;20763;-81
2021/09/15 07:07:58;;;;;;;35.90;7.05;;;;;;;;;;4955831;28;20066;-79
2021/09/15 07:10:24;;;;;;;28.75;6.47;;;;;;;;;;4957482;28;20038;-79
2021/09/15 07:12:51;;;;;;;34.85;7.43;;;;;;;;;;4954428;28;20047;-79
2021/09/15 07:15:18;;;;;;;31.75;6.60;;;;;;;;;;4959885;28;20439;-79
2021/09/15 07:17:45;;;;;;;38.80;7.97;;;;;;;;;;4975020;28;20034;-79
2021/09/15 07:20:12;;;;;;;32.90;7.53;;;;;;;;;;4963391;28;20037;-79
2021/09/15 07:22:38;;;;;;;29.50;7.32;;;;;;;;;;4956692;28;20430;-78
2021/09/15 07:25:04;;;;;;;27.85;6.28;;;;;;;;;;4977932;28;20069;-79
2021/09/15 07:27:31;;;;;;;33.92;7.10;;;;;;;;;;4958522;28;20038;-79
2021/09/15 07:29:57;;;;;;;28.58;6.25;;;;;;;;;;4959390;28;20045;-79
2021/09/15 07:32:24;;;;;;;31.33;6.05;;;;;;;;;;4958926;28;20043;-79
2021/09/15 07:34:50;;;;;;;27.80;6.15;;;;;;;;;;4961798;28;20047;-79
2021/09/15 07:37:17;;;;;;;30.70;6.70;;;;;;;;;;4962407;28;20092;-80
2021/09/15 07:39:44;;;;;;;29.60;6.53;;;;;;;;;;4972896;28;20647;-78
2021/09/15 07:42:10;;;;;;;30.83;6.72;;;;;;;;;;4966262;28;20027;-81
2021/09/15 07:44:37;;;;;;;25.60;6.13;;;;;;;;;;4959338;28;20117;-81
2021/09/15 07:47:04;;;;;;;35.75;7.25;;;;;;;;;;4966004;28;20034;-81
2021/09/15 07:49:30;;;;;;;29.70;6.20;;;;;;;;;;4970568;28;20031;-80
2021/09/15 07:51:56;;;;;;;33.85;6.70;;;;;;;;;;4989261;28;20065;-81
2021/09/15 07:54:25;;;;;;;31.05;6.20;;;;;;;;;;4968936;28;20038;-80
2021/09/15 07:56:51;;;;;;;36.65;6.55;;;;;;;;;;4963851;28;20046;-80
2021/09/15 07:59:18;;;;;;;31.05;6.70;;;;;;;;;;4964134;28;20042;-80
2021/09/15 08:01:44;;;;;;;33.50;6.15;;;;;;;;;;4967381;28;20053;-81
2021/09/15 08:04:10;;;;;;;27.00;6.75;;;;;;;;;;4964081;28;20047;-80
2021/09/15 08:06:37;;;;;;;24.88;6.50;;;;;;;;;;4960380;28;20620;-80
2021/09/15 08:09:04;;;;;;;34.38;7.13;;;;;;;;;;4966705;28;20022;-80
2021/09/15 08:11:32;;;;;;;22.90;5.82;;;;;;;;;;4959561;28;20092;-81
2021/09/15 08:13:59;;;;;;;30.23;6.85;;;;;;;;;;4961442;28;20150;-80
2021/09/15 08:16:25;;;;;;;24.98;5.82;;;;;;;;;;4963437;28;20149;-80
2021/09/15 08:18:51;;;;;;;30.65;6.32;;;;;;;;;;4963221;28;20046;-80
2021/09/15 08:21:17;;;;;;;27.33;5.68;;;;;;;;;;4959997;28;20033;-80
2021/09/15 08:23:43;;;;;;;29.70;6.05;;;;;;;;;;4972038;28;20034;-80
2021/09/15 08:26:10;;;;;;;23.85;5.60;;;;;;;;;;4965795;28;20190;-80
2021/09/15 08:28:36;;;;;;;28.92;6.50;;;;;;;;;;4959044;28;20496;-80
2021/09/15 08:31:03;;;;;;;22.77;5.10;;;;;;;;;;4966817;28;20177;-80
2021/09/15 08:33:30;;;;;;;22.60;4.95;;;;;;;;;;4962952;28;20628;-79
2021/09/15 08:35:56;;;;;;;30.45;5.82;;;;;;;;;;4964992;28;20053;-80
2021/09/15 08:38:23;;;;;;;26.27;5.85;;;;;;;;;;4961889;28;20147;-80
2021/09/15 08:40:53;;;;;;;28.55;5.72;;;;;;;;;;4972327;28;20065;-80
2021/09/15 08:43:20;;;;;;;31.40;5.05;;;;;;;;;;4978422;28;20039;-80
2021/09/15 08:45:47;;;;;;;20.73;4.50;;;;;;;;;;4975099;28;20100;-80
2021/09/15 08:48:21;;;;;;;24.73;5.22;;;;;;;;;;4977412;28;20038;-80
2021/09/15 08:50:51;;;;;;;21.88;4.28;;;;;;;;;;4963982;28;20034;-80
2021/09/15 08:53:18;;;;;;;27.85;6.07;;;;;;;;;;4973711;28;20117;-79
2021/09/15 08:55:56;;;;;;;26.40;4.45;;;;;;;;;;4964347;28;20116;-79
2021/09/15 08:58:23;;;;;;;25.35;5.22;;;;;;;;;;4958382;28;20415;-79
2021/09/15 09:00:49;;;;;;;21.73;4.60;;;;;;;;;;4976349;28;20061;-79
2021/09/15 09:03:15;;;;;;;22.92;4.70;;;;;;;;;;4961110;28;20019;-81
2021/09/15 09:05:41;;;;;;;22.27;4.53;;;;;;;;;;4961139;28;20038;-79
2021/09/15 09:08:24;;;;;;;24.30;4.82;;;;;;;;;;4975785;28;20047;-80
2021/09/15 09:10:52;;;;;;;23.42;4.30;;;;;;;;;;4972778;28;20561;-79
2021/09/15 09:13:18;;;;;;;25.05;4.20;;;;;;;;;;4971025;28;20097;-81
2021/09/15 09:15:45;;;;;;;22.95;4.38;;;;;;;;;;4978995;28;20121;-81
2021/09/15 09:18:11;;;;;;;24.73;4.72;;;;;;;;;;4956683;28;20023;-81
2021/09/15 09:20:37;;;;;;;25.67;4.55;;;;;;;;;;4966213;28;20986;-80
2021/09/15 09:23:08;;;;;;;33.10;4.97;;;;;;;;;;4973319;28;20026;-81
2021/09/15 09:25:39;;;;;;;26.13;4.95;;;;;;;;;;4960623;28;20811;-81
2021/09/15 09:28:20;;;;;;;25.23;4.60;;;;;;;;;;4973979;28;24031;-81
2021/09/15 09:30:48;;;;;;;20.25;4.13;;;;;;;;;;4961809;28;20050;-80
2021/09/15 09:33:15;;;;;;;21.35;4.35;;;;;;;;;;4959351;28;20034;-80
2021/09/15 09:35:43;;;;;;;24.38;4.70;;;;;;;;;;4953161;28;20166;-80
2021/09/15 09:38:17;;;;;;;24.73;4.43;;;;;;;;;;4962943;28;20046;-80
2021/09/15 09:40:53;;;;;;;28.25;5.13;;;;;;;;;;4961391;28;20043;-80
2021/09/15 09:43:20;;;;;;;20.45;4.00;;;;;;;;;;4954222;28;20042;-79
2021/09/15 09:45:47;;;;;;;19.67;3.72;;;;;;;;;;4974457;28;20039;-80
2021/09/15 09:48:27;;;;;;;27.23;4.13;;;;;;;;;;4965446;28;20030;-80
2021/09/15 09:50:54;;;;;;;20.40;4.43;;;;;;;;;;4949875;28;20956;-79
2021/09/15 09:53:20;;;;;;;20.85;4.32;;;;;;;;;;4969729;28;20411;-79
2021/09/15 09:55:47;;;;;;;21.25;3.97;;;;;;;;;;4984591;28;20088;-79
2021/09/15 09:58:13;;;;;;;20.20;4.82;;;;;;;;;;4984544;28;20042;-80
2021/09/15 10:00:41;;;;;;;23.67;4.45;;;;;;;;;;4963590;28;20063;-79
2021/09/15 10:03:08;;;;;;;19.42;4.40;;;;;;;;;;4968321;28;20038;-80
2021/09/15 10:05:34;;;;;;;20.90;4.63;;;;;;;;;;4964659;28;20117;-79
2021/09/15 10:08:03;;;;;;;24.65;4.03;;;;;;;;;;4968185;28;20078;-79
2021/09/15 10:10:29;;;;;;;20.50;4.18;;;;;;;;;;4957059;28;20027;-79
2021/09/15 10:12:56;;;;;;;21.73;4.57;;;;;;;;;;4980984;28;20034;-79
2021/09/15 10:15:22;;;;;;;21.08;3.92;;;;;;;;;;4961810;28;20088;-78
2021/09/15 10:17:51;;;;;;;21.25;3.88;;;;;;;;;;4976183;28;20070;-78
2021/09/15 10:20:22;;;;;;;22.60;4.35;;;;;;;;;;4955587;28;20042;-78
2021/09/15 10:22:49;;;;;;;18.85;3.60;;;;;;;;;;4961444;28;20124;-78
2021/09/15 10:25:16;;;;;;;20.38;3.65;;;;;;;;;;4955679;28;20031;-79
2021/09/15 10:28:04;;;;;;;23.25;3.97;;;;;;;;;;4973783;28;20534;-80
2021/09/15 10:30:44;;;;;;;23.02;3.47;;;;;;;;;;4955558;28;20038;-80
2021/09/15 10:33:29;;;;;;;21.48;3.20;;;;;;;;;;4963766;28;20026;-80
2021/09/15 10:35:55;;;;;;;17.83;3.55;;;;;;;;;;4961841;28;20054;-81
2021/09/15 10:38:41;;;;;;;16.95;3.88;;;;;;;;;;4956722;28;20623;-80
2021/09/15 10:41:46;;;;;;;16.48;3.28;;;;;;;;;;4961481;28;20038;-80
2021/09/15 10:44:13;;;;;;;26.73;3.97;;;;;;;;;;4918342;28;20045;-80
2021/09/15 10:46:41;;;;;;;23.02;3.95;;;;;;;;;;4916108;28;20231;-78
2021/09/15 10:49:18;;;;;;;21.42;4.25;;;;;;;;;;4900134;28;20117;-80
2021/09/15 10:51:45;;;;;;;23.38;3.78;;;;;;;;;;4915424;28;20173;-81
2021/09/15 10:54:29;;;;;;;26.60;4.18;;;;;;;;;;4917676;28;20039;-80
2021/09/15 10:57:18;;;;;;;22.65;4.15;;;;;;;;;;4919903;28;20047;-80
2021/09/15 10:59:52;;;;;;;22.17;4.68;;;;;;;;;;4916248;28;20064;-80
2021/09/15 11:02:27;;;;;;;27.10;4.57;;;;;;;;;;4916865;28;20122;-80
2021/09/15 11:04:54;;;;;;;26.48;4.40;;;;;;;;;;4919130;28;20042;-80
2021/09/15 11:07:39;;;;;;;23.45;4.07;;;;;;;;;;4917423;28;20065;-80
2021/09/15 11:10:13;;;;;;;23.45;3.85;;;;;;;;;;4901657;28;20119;-79
2021/09/15 11:12:46;;;;;;;19.17;3.35;;;;;;;;;;4916985;28;20031;-79
2021/09/15 11:15:25;;;;;;;19.17;4.00;;;;;;;;;;4942396;28;20057;-78
2021/09/15 11:17:52;;;;;;;26.27;4.22;;;;;;;;;;4971293;28;20412;-78
2021/09/15 11:20:25;;;;;;;17.15;3.28;;;;;;;;;;4955202;28;20026;-79
2021/09/15 11:22:52;;;;;;;23.65;4.28;;;;;;;;;;4956134;28;20085;-79
2021/09/15 11:25:19;;;;;;;21.05;4.45;;;;;;;;;;4948865;28;20027;-78
2021/09/15 11:28:04;;;;;;;18.42;4.00;;;;;;;;;;4972746;28;20117;-79
2021/09/15 11:30:31;;;;;;;25.10;4.30;;;;;;;;;;4953556;28;20123;-79
2021/09/15 11:32:58;;;;;;;31.80;4.38;;;;;;;;;;4955328;28;21284;-79
2021/09/15 11:35:24;;;;;;;23.75;3.88;;;;;;;;;;4957629;28;20034;-79
2021/09/15 11:37:50;;;;;;;25.48;4.25;;;;;;;;;;4956236;28;20054;-79
2021/09/15 11:40:17;;;;;;;19.95;4.25;;;;;;;;;;4968861;28;20058;-79
2021/09/15 11:42:43;;;;;;;22.90;3.85;;;;;;;;;;4960276;28;20054;-79
2021/09/15 11:45:11;;;;;;;21.10;4.45;;;;;;;;;;4975177;28;20062;-79
2021/09/15 11:47:38;;;;;;;24.08;5.13;;;;;;;;;;4952793;28;20799;-79
2021/09/15 11:50:34;;;;;;;21.27;4.03;;;;;;;;;;4957991;28;20058;-79
2021/09/15 11:53:08;;;;;;;20.45;3.83;;;;;;;;;;4959517;28;20030;-79
2021/09/15 11:55:40;;;;;;;24.00;4.10;;;;;;;;;;4926620;28;20067;-79
2021/09/15 11:58:07;;;;;;;28.60;3.70;;;;;;;;;;4925955;28;20034;-80
2021/09/15 12:00:34;;;;;;;23.17;3.55;;;;;;;;;;4938353;28;20054;-79
2021/09/15 12:03:02;;;;;;;18.00;3.28;;;;;;;;;;4942722;28;20039;-81
2021/09/15 12:05:29;;;;;;;20.58;3.38;;;;;;;;;;4919922;28;20054;-81
2021/09/15 12:07:55;;;;;;;17.42;3.38;;;;;;;;;;4925542;28;20070;-81
2021/09/15 12:10:22;;;;;;;23.55;4.03;;;;;;;;;;4942755;28;20054;-80
2021/09/15 12:12:50;;;;;;;19.02;3.53;;;;;;;;;;4942899;28;20063;-80
2021/09/15 12:15:16;;;;;;;23.10;3.97;;;;;;;;;;4943537;28;20035;-80
2021/09/15 12:17:53;;;;;;;21.50;3.55;;;;;;;;;;4942480;28;20061;-79
2021/09/15 12:20:37;;;;;;;19.77;3.67;;;;;;;;;;4937837;28;20067;-80
2021/09/15 12:23:03;;;;;;;22.45;3.95;;;;;;;;;;4932125;28;20038;-79
2021/09/15 12:25:29;;;;;;;23.35;4.28;;;;;;;;;;4926175;28;20054;-80
2021/09/15 12:27:58;;;;;;;21.40;3.90;;;;;;;;;;4926618;28;20137;-80
2021/09/15 12:30:24;;;;;;;21.45;3.65;;;;;;;;;;4953193;28;20047;-80
2021/09/15 12:32:59;;;;;;;18.25;3.35;;;;;;;;;;4958566;28;20046;-79
2021/09/15 12:35:33;;;;;;;24.20;3.47;;;;;;;;;;4960599;28;20146;-79
2021/09/15 12:38:08;;;;;;;20.77;4.00;;;;;;;;;;4963481;28;20108;-80
2021/09/15 12:40:37;;;;;;;19.63;3.35;;;;;;;;;;4954407;28;20068;-79
2021/09/15 12:43:09;;;;;;;18.50;3.33;;;;;;;;;;4960466;28;20045;-79
2021/09/15 12:45:39;;;;;;;21.35;3.35;;;;;;;;;;4968779;28;20038;-79
2021/09/15 12:48:14;;;;;;;21.30;3.80;;;;;;;;;;4961818;28;20613;-79
2021/09/15 12:50:44;;;;;;;20.95;3.40;;;;;;;;;;4959826;28;20117;-80
2021/09/15 12:53:14;;;;;;;21.63;3.30;;;;;;;;;;4961625;28;20105;-80
2021/09/15 12:55:40;;;;;;;18.20;3.25;;;;;;;;;;4973036;28;20034;-79
2021/09/15 12:58:09;;;;;;;16.08;3.17;;;;;;;;;;4958712;28;20125;-79
2021/09/15 13:00:42;;;;;;;12.57;2.97;;;;;;;;;;4955691;28;20038;-80
2021/09/15 13:03:09;;;;;;;12.95;3.20;;;;;;;;;;4959905;28;20032;-80
2021/09/15 13:05:36;;;;;;;19.83;3.30;;;;;;;;;;4951767;28;20038;-80
2021/09/15 13:08:05;;;;;;;16.52;3.30;;;;;;;;;;4960889;28;20042;-80
2021/09/15 13:10:32;;;;;;;16.48;3.28;;;;;;;;;;4956320;28;20138;-79
2021/09/15 13:12:59;;;;;;;17.75;3.17;;;;;;;;;;4974323;28;20562;-79
2021/09/15 13:15:27;;;;;;;17.42;3.13;;;;;;;;;;4953075;28;20036;-78
2021/09/15 13:17:54;;;;;;;19.45;3.38;;;;;;;;;;4961841;28;20472;-79
2021/09/15 13:20:20;;;;;;;20.55;3.33;;;;;;;;;;4956717;28;20035;-79
2021/09/15 13:22:46;;;;;;;17.33;3.25;;;;;;;;;;4960914;28;20137;-78
2021/09/15 13:25:13;;;;;;;17.27;3.00;;;;;;;;;;4959178;28;20058;-77
2021/09/15 13:27:40;;;;;;;16.75;2.72;;;;;;;;;;4971612;28;20034;-79
2021/09/15 13:30:07;;;;;;;20.52;3.20;;;;;;;;;;4961603;28;21099;-79
2021/09/15 13:32:33;;;;;;;20.90;3.53;;;;;;;;;;4970035;28;20023;-78
2021/09/15 13:34:59;;;;;;;21.52;3.20;;;;;;;;;;4972955;28;20049;-79
2021/09/15 13:37:26;;;;;;;20.80;2.88;;;;;;;;;;4953297;28;20057;-79
2021/09/15 13:39:57;;;;;;;17.63;2.90;;;;;;;;;;4958166;28;20070;-79
2021/09/15 13:42:27;;;;;;;19.75;3.20;;;;;;;;;;4952223;28;20026;-81
2021/09/15 13:44:53;;;;;;;21.13;3.05;;;;;;;;;;4971957;28;20843;-79
2021/09/15 13:47:20;;;;;;;16.58;3.28;;;;;;;;;;4960088;28;20035;-80
2021/09/15 13:49:47;;;;;;;20.35;3.10;;;;;;;;;;4958570;28;20958;-80
2021/09/15 13:52:13;;;;;;;18.33;3.22;;;;;;;;;;4967154;28;20038;-79
2021/09/15 13:54:41;;;;;;;17.02;2.92;;;;;;;;;;4954741;28;20277;-79
2021/09/15 13:57:08;;;;;;;19.23;2.95;;;;;;;;;;4956189;28;20039;-79
2021/09/15 13:59:34;;;;;;;18.27;2.85;;;;;;;;;;4954775;28;20041;-79
2021/09/15 14:02:01;;;;;;;21.40;3.42;;;;;;;;;;4953745;28;20046;-78
2021/09/15 14:04:28;;;;;;;18.02;3.28;;;;;;;;;;4959968;28;20100;-80
2021/09/15 14:06:54;;;;;;;17.08;3.03;;;;;;;;;;4959263;28;20042;-79
2021/09/15 14:09:20;;;;;;;15.07;2.40;;;;;;;;;;4951467;28;20071;-79
2021/09/15 14:11:46;;;;;;;21.23;3.00;;;;;;;;;;4969366;28;20065;-79
2021/09/15 14:14:14;;;;;;;16.30;2.97;;;;;;;;;;4956301;28;20049;-79
2021/09/15 14:16:45;;;;;;;19.45;2.70;;;;;;;;;;4954377;28;20137;-79
2021/09/15 14:19:23;;;;;;;18.98;3.20;;;;;;;;;;4958008;28;20038;-80
2021/09/15 14:21:49;;;;;;;21.48;3.53;;;;;;;;;;4961506;28;20050;-79
2021/09/15 14:24:15;;;;;;;20.15;3.33;;;;;;;;;;4962083;28;20108;-78
2021/09/15 14:26:41;;;;;;;21.98;3.22;;;;;;;;;;4952617;28;20034;-79
2021/09/15 14:29:08;;;;;;;18.40;2.97;;;;;;;;;;4970935;28;20042;-80
2021/09/15 14:31:34;;;;;;;17.30;2.70;;;;;;;;;;4959581;28;20030;-77
2021/09/15 14:34:04;;;;;;;19.48;3.22;;;;;;;;;;4961643;28;20038;-77
2021/09/15 14:36:30;;;;;;;18.85;3.40;;;;;;;;;;4955361;28;20385;-76
2021/09/15 14:38:56;;;;;;;18.35;3.08;;;;;;;;;;4956611;28;20030;-76
2021/09/15 14:41:25;;;;;;;15.02;2.85;;;;;;;;;;4966955;28;20100;-78